sensor_id;sensor_type;location;lat;lon;timestamp;P1;durP1;ratioP1;P2;durP2;ratioP2
27999;SDS011;15328;50.860;10.562;2024-03-02T00:01:45;24.65;;;13.23;;
27999;SDS011;15328;50.860;10.562;2024-03-02T00:06:46;22.23;;;13.23;;
27999;SDS011;15328;50.860;10.562;2024-03-02T00:11:46;19.67;;;11.82;;
27999;SDS011;15328;50.860;10.562;2024-03-02T00:16:46;20.77;;;12.13;;
27999;SDS011;15328;50.860;10.562;2024-03-02T00:21:47;20.50;;;12.00;;
27999;SDS011;15328;50.860;10.562;2024-03-02T00:26:47;21.05;;;11.02;;
27999;SDS011;15328;50.860;10.562;2024-03-02T00:31:48;20.10;;;11.17;;
27999;SDS011;15328;50.860;10.562;2024-03-02T00:36:48;20.92;;;12.30;;
27999;SDS011;15328;50.860;10.562;2024-03-02T00:41:49;20.65;;;12.07;;
27999;SDS011;15328;50.860;10.562;2024-03-02T00:46:49;24.80;;;14.10;;
27999;SDS011;15328;50.860;10.562;2024-03-02T00:51:50;20.40;;;12.40;;
27999;SDS011;15328;50.860;10.562;2024-03-02T00:56:52;24.77;;;13.13;;
27999;SDS011;15328;50.860;10.562;2024-03-02T01:01:55;21.98;;;12.35;;
27999;SDS011;15328;50.860;10.562;2024-03-02T01:06:55;20.23;;;11.67;;
27999;SDS011;15328;50.860;10.562;2024-03-02T01:11:56;24.70;;;13.45;;
27999;SDS011;15328;50.860;10.562;2024-03-02T01:16:56;22.95;;;13.05;;
27999;SDS011;15328;50.860;10.562;2024-03-02T01:21:57;20.17;;;11.33;;
27999;SDS011;15328;50.860;10.562;2024-03-02T01:26:57;20.47;;;11.70;;
27999;SDS011;15328;50.860;10.562;2024-03-02T01:31:57;22.03;;;11.63;;
27999;SDS011;15328;50.860;10.562;2024-03-02T01:36:58;23.77;;;12.95;;
27999;SDS011;15328;50.860;10.562;2024-03-02T01:41:58;25.33;;;14.23;;
27999;SDS011;15328;50.860;10.562;2024-03-02T01:46:58;22.35;;;13.18;;
27999;SDS011;15328;50.860;10.562;2024-03-02T01:51:59;30.00;;;16.70;;
27999;SDS011;15328;50.860;10.562;2024-03-02T01:56:59;30.45;;;16.85;;
27999;SDS011;15328;50.860;10.562;2024-03-02T02:02:00;33.65;;;18.92;;
27999;SDS011;15328;50.860;10.562;2024-03-02T02:07:01;31.15;;;17.85;;
27999;SDS011;15328;50.860;10.562;2024-03-02T02:12:01;35.87;;;19.10;;
27999;SDS011;15328;50.860;10.562;2024-03-02T02:17:02;33.88;;;18.25;;
27999;SDS011;15328;50.860;10.562;2024-03-02T02:22:03;37.65;;;19.75;;
27999;SDS011;15328;50.860;10.562;2024-03-02T02:27:03;39.90;;;20.60;;
27999;SDS011;15328;50.860;10.562;2024-03-02T02:32:04;37.92;;;20.88;;
27999;SDS011;15328;50.860;10.562;2024-03-02T02:37:04;39.10;;;21.75;;
27999;SDS011;15328;50.860;10.562;2024-03-02T02:42:05;43.42;;;22.88;;
27999;SDS011;15328;50.860;10.562;2024-03-02T02:47:05;39.65;;;22.73;;
27999;SDS011;15328;50.860;10.562;2024-03-02T02:52:06;43.70;;;23.23;;
27999;SDS011;15328;50.860;10.562;2024-03-02T02:57:06;47.35;;;24.95;;
27999;SDS011;15328;50.860;10.562;2024-03-02T03:02:06;42.70;;;23.30;;
27999;SDS011;15328;50.860;10.562;2024-03-02T03:07:07;42.77;;;22.60;;
27999;SDS011;15328;50.860;10.562;2024-03-02T03:12:07;47.65;;;25.13;;
27999;SDS011;15328;50.860;10.562;2024-03-02T03:17:08;42.67;;;23.63;;
27999;SDS011;15328;50.860;10.562;2024-03-02T03:22:08;44.83;;;23.13;;
27999;SDS011;15328;50.860;10.562;2024-03-02T03:27:09;42.45;;;21.73;;
27999;SDS011;15328;50.860;10.562;2024-03-02T03:32:10;44.85;;;23.75;;
27999;SDS011;15328;50.860;10.562;2024-03-02T03:37:11;41.15;;;21.52;;
27999;SDS011;15328;50.860;10.562;2024-03-02T03:42:11;34.45;;;18.40;;
27999;SDS011;15328;50.860;10.562;2024-03-02T03:47:11;28.57;;;15.90;;
27999;SDS011;15328;50.860;10.562;2024-03-02T03:52:12;25.83;;;14.48;;
27999;SDS011;15328;50.860;10.562;2024-03-02T03:57:12;29.53;;;15.83;;
27999;SDS011;15328;50.860;10.562;2024-03-02T04:02:12;30.23;;;15.87;;
27999;SDS011;15328;50.860;10.562;2024-03-02T04:07:13;26.67;;;14.77;;
27999;SDS011;15328;50.860;10.562;2024-03-02T04:12:13;28.53;;;16.07;;
27999;SDS011;15328;50.860;10.562;2024-03-02T04:17:13;25.67;;;15.17;;
27999;SDS011;15328;50.860;10.562;2024-03-02T04:22:14;26.83;;;15.35;;
27999;SDS011;15328;50.860;10.562;2024-03-02T04:27:14;28.50;;;15.87;;
27999;SDS011;15328;50.860;10.562;2024-03-02T04:32:14;29.40;;;14.53;;
27999;SDS011;15328;50.860;10.562;2024-03-02T04:37:15;30.38;;;14.90;;
27999;SDS011;15328;50.860;10.562;2024-03-02T04:42:15;25.88;;;13.68;;
27999;SDS011;15328;50.860;10.562;2024-03-02T04:47:16;25.38;;;13.25;;
27999;SDS011;15328;50.860;10.562;2024-03-02T04:52:16;24.75;;;13.57;;
27999;SDS011;15328;50.860;10.562;2024-03-02T04:57:17;28.52;;;15.63;;
27999;SDS011;15328;50.860;10.562;2024-03-02T05:02:17;27.93;;;15.87;;
27999;SDS011;15328;50.860;10.562;2024-03-02T05:07:17;29.40;;;16.30;;
27999;SDS011;15328;50.860;10.562;2024-03-02T05:12:18;26.10;;;13.93;;
27999;SDS011;15328;50.860;10.562;2024-03-02T05:17:37;25.00;;;13.35;;
27999;SDS011;15328;50.860;10.562;2024-03-02T05:22:38;22.77;;;13.02;;
27999;SDS011;15328;50.860;10.562;2024-03-02T05:27:39;22.42;;;12.38;;
27999;SDS011;15328;50.860;10.562;2024-03-02T05:32:39;21.88;;;11.77;;
27999;SDS011;15328;50.860;10.562;2024-03-02T05:37:40;23.23;;;13.82;;
27999;SDS011;15328;50.860;10.562;2024-03-02T05:42:41;26.90;;;14.80;;
27999;SDS011;15328;50.860;10.562;2024-03-02T05:47:41;29.60;;;16.85;;
27999;SDS011;15328;50.860;10.562;2024-03-02T05:52:41;26.67;;;15.30;;
27999;SDS011;15328;50.860;10.562;2024-03-02T05:57:42;24.25;;;14.73;;
27999;SDS011;15328;50.860;10.562;2024-03-02T06:02:49;29.25;;;15.82;;
27999;SDS011;15328;50.860;10.562;2024-03-02T06:07:49;29.27;;;16.85;;
27999;SDS011;15328;50.860;10.562;2024-03-02T06:12:49;28.17;;;15.80;;
27999;SDS011;15328;50.860;10.562;2024-03-02T06:17:50;30.30;;;16.90;;
27999;SDS011;15328;50.860;10.562;2024-03-02T06:22:50;27.60;;;16.33;;
27999;SDS011;15328;50.860;10.562;2024-03-02T06:27:50;29.88;;;16.55;;
27999;SDS011;15328;50.860;10.562;2024-03-02T06:32:51;28.25;;;16.33;;
27999;SDS011;15328;50.860;10.562;2024-03-02T06:37:51;27.87;;;16.33;;
27999;SDS011;15328;50.860;10.562;2024-03-02T06:42:51;27.95;;;16.40;;
27999;SDS011;15328;50.860;10.562;2024-03-02T06:47:52;26.73;;;16.70;;
27999;SDS011;15328;50.860;10.562;2024-03-02T06:52:52;29.30;;;16.97;;
27999;SDS011;15328;50.860;10.562;2024-03-02T06:57:52;22.50;;;13.75;;
27999;SDS011;15328;50.860;10.562;2024-03-02T07:02:53;25.35;;;14.93;;
27999;SDS011;15328;50.860;10.562;2024-03-02T07:07:53;22.75;;;13.57;;
27999;SDS011;15328;50.860;10.562;2024-03-02T07:12:55;26.33;;;15.48;;
27999;SDS011;15328;50.860;10.562;2024-03-02T07:17:55;23.63;;;14.35;;
27999;SDS011;15328;50.860;10.562;2024-03-02T07:22:55;28.58;;;15.52;;
27999;SDS011;15328;50.860;10.562;2024-03-02T07:27:56;23.80;;;14.48;;
27999;SDS011;15328;50.860;10.562;2024-03-02T07:32:57;23.10;;;13.32;;
27999;SDS011;15328;50.860;10.562;2024-03-02T07:37:57;23.38;;;14.40;;
27999;SDS011;15328;50.860;10.562;2024-03-02T07:42:58;24.23;;;14.07;;
27999;SDS011;15328;50.860;10.562;2024-03-02T07:47:58;22.13;;;13.68;;
27999;SDS011;15328;50.860;10.562;2024-03-02T07:52:58;23.95;;;12.95;;
27999;SDS011;15328;50.860;10.562;2024-03-02T07:58:00;23.60;;;13.45;;
27999;SDS011;15328;50.860;10.562;2024-03-02T08:03:03;27.63;;;15.43;;
27999;SDS011;15328;50.860;10.562;2024-03-02T08:08:04;23.42;;;13.88;;
27999;SDS011;15328;50.860;10.562;2024-03-02T08:13:05;23.55;;;13.95;;
27999;SDS011;15328;50.860;10.562;2024-03-02T08:18:05;23.33;;;13.80;;
27999;SDS011;15328;50.860;10.562;2024-03-02T08:23:06;19.60;;;12.13;;
27999;SDS011;15328;50.860;10.562;2024-03-02T08:28:08;22.95;;;12.38;;
27999;SDS011;15328;50.860;10.562;2024-03-02T08:33:08;19.73;;;11.63;;
27999;SDS011;15328;50.860;10.562;2024-03-02T08:38:11;20.10;;;11.77;;
27999;SDS011;15328;50.860;10.562;2024-03-02T08:43:12;17.95;;;10.90;;
27999;SDS011;15328;50.860;10.562;2024-03-02T08:48:12;19.55;;;10.93;;
27999;SDS011;15328;50.860;10.562;2024-03-02T08:53:13;15.38;;;9.77;;
27999;SDS011;15328;50.860;10.562;2024-03-02T08:58:13;16.50;;;10.95;;
27999;SDS011;15328;50.860;10.562;2024-03-02T09:03:13;20.42;;;12.00;;
27999;SDS011;15328;50.860;10.562;2024-03-02T09:08:14;18.33;;;11.35;;
27999;SDS011;15328;50.860;10.562;2024-03-02T09:13:15;16.20;;;10.30;;
27999;SDS011;15328;50.860;10.562;2024-03-02T09:18:15;15.18;;;9.77;;
27999;SDS011;15328;50.860;10.562;2024-03-02T09:23:16;13.18;;;9.10;;
27999;SDS011;15328;50.860;10.562;2024-03-02T09:28:16;12.37;;;8.10;;
27999;SDS011;15328;50.860;10.562;2024-03-02T09:33:16;10.63;;;8.00;;
27999;SDS011;15328;50.860;10.562;2024-03-02T09:38:17;12.35;;;8.18;;
27999;SDS011;15328;50.860;10.562;2024-03-02T09:43:18;11.57;;;7.90;;
27999;SDS011;15328;50.860;10.562;2024-03-02T09:48:18;10.40;;;7.25;;
27999;SDS011;15328;50.860;10.562;2024-03-02T09:53:20;11.43;;;7.20;;
27999;SDS011;15328;50.860;10.562;2024-03-02T09:58:22;9.55;;;5.80;;
27999;SDS011;15328;50.860;10.562;2024-03-02T10:03:22;11.30;;;7.03;;
27999;SDS011;15328;50.860;10.562;2024-03-02T10:08:26;8.27;;;6.28;;
27999;SDS011;15328;50.860;10.562;2024-03-02T10:13:43;8.40;;;5.78;;
27999;SDS011;15328;50.860;10.562;2024-03-02T10:18:43;10.67;;;6.27;;
27999;SDS011;15328;50.860;10.562;2024-03-02T10:23:43;11.87;;;6.70;;
27999;SDS011;15328;50.860;10.562;2024-03-02T10:28:47;9.67;;;6.10;;
27999;SDS011;15328;50.860;10.562;2024-03-02T10:33:59;8.32;;;6.22;;
27999;SDS011;15328;50.860;10.562;2024-03-02T10:38:59;10.60;;;5.90;;
27999;SDS011;15328;50.860;10.562;2024-03-02T10:44:02;7.38;;;4.90;;
27999;SDS011;15328;50.860;10.562;2024-03-02T10:49:04;8.27;;;5.20;;
27999;SDS011;15328;50.860;10.562;2024-03-02T10:54:06;8.45;;;5.50;;
27999;SDS011;15328;50.860;10.562;2024-03-02T10:59:12;9.32;;;5.72;;
27999;SDS011;15328;50.860;10.562;2024-03-02T11:04:24;8.77;;;5.30;;
27999;SDS011;15328;50.860;10.562;2024-03-02T11:09:27;9.18;;;5.93;;
27999;SDS011;15328;50.860;10.562;2024-03-02T11:14:30;9.23;;;5.78;;
27999;SDS011;15328;50.860;10.562;2024-03-02T11:19:34;8.60;;;5.78;;
27999;SDS011;15328;50.860;10.562;2024-03-02T11:24:38;8.90;;;5.97;;
27999;SDS011;15328;50.860;10.562;2024-03-02T11:34:38;9.45;;;5.88;;
27999;SDS011;15328;50.860;10.562;2024-03-02T11:39:46;9.55;;;5.38;;
27999;SDS011;15328;50.860;10.562;2024-03-02T11:44:48;8.82;;;5.43;;
27999;SDS011;15328;50.860;10.562;2024-03-02T11:49:49;10.20;;;5.68;;
27999;SDS011;15328;50.860;10.562;2024-03-02T11:54:51;11.45;;;5.57;;
27999;SDS011;15328;50.860;10.562;2024-03-02T11:59:53;7.68;;;5.05;;
27999;SDS011;15328;50.860;10.562;2024-03-02T12:04:54;7.57;;;4.70;;
27999;SDS011;15328;50.860;10.562;2024-03-02T12:09:59;8.15;;;5.07;;
27999;SDS011;15328;50.860;10.562;2024-03-02T12:15:01;7.65;;;4.90;;
27999;SDS011;15328;50.860;10.562;2024-03-02T12:20:04;7.50;;;4.97;;
27999;SDS011;15328;50.860;10.562;2024-03-02T12:25:05;7.90;;;4.78;;
27999;SDS011;15328;50.860;10.562;2024-03-02T12:30:06;7.80;;;5.18;;
27999;SDS011;15328;50.860;10.562;2024-03-02T12:35:10;6.13;;;4.43;;
27999;SDS011;15328;50.860;10.562;2024-03-02T12:40:15;5.53;;;4.13;;
27999;SDS011;15328;50.860;10.562;2024-03-02T12:45:20;5.00;;;3.40;;
27999;SDS011;15328;50.860;10.562;2024-03-02T12:50:23;4.97;;;3.30;;
27999;SDS011;15328;50.860;10.562;2024-03-02T12:55:24;4.00;;;2.70;;
27999;SDS011;15328;50.860;10.562;2024-03-02T13:00:24;4.75;;;2.80;;
27999;SDS011;15328;50.860;10.562;2024-03-02T13:05:25;7.32;;;3.35;;
27999;SDS011;15328;50.860;10.562;2024-03-02T13:10:30;5.03;;;2.55;;
27999;SDS011;15328;50.860;10.562;2024-03-02T13:15:32;4.00;;;2.70;;
27999;SDS011;15328;50.860;10.562;2024-03-02T13:20:33;4.63;;;2.63;;
27999;SDS011;15328;50.860;10.562;2024-03-02T13:25:34;4.38;;;2.67;;
27999;SDS011;15328;50.860;10.562;2024-03-02T13:30:40;4.60;;;2.50;;
27999;SDS011;15328;50.860;10.562;2024-03-02T13:35:41;4.05;;;2.40;;
27999;SDS011;15328;50.860;10.562;2024-03-02T13:40:41;3.73;;;2.00;;
27999;SDS011;15328;50.860;10.562;2024-03-02T13:45:41;2.60;;;1.60;;
27999;SDS011;15328;50.860;10.562;2024-03-02T13:50:42;2.80;;;1.90;;
27999;SDS011;15328;50.860;10.562;2024-03-02T13:55:42;2.88;;;1.70;;
27999;SDS011;15328;50.860;10.562;2024-03-02T14:00:42;1.90;;;1.40;;
27999;SDS011;15328;50.860;10.562;2024-03-02T14:05:45;3.13;;;1.50;;
27999;SDS011;15328;50.860;10.562;2024-03-02T14:10:46;3.13;;;1.50;;
27999;SDS011;15328;50.860;10.562;2024-03-02T14:15:46;1.97;;;1.30;;
27999;SDS011;15328;50.860;10.562;2024-03-02T14:20:47;1.70;;;1.10;;
27999;SDS011;15328;50.860;10.562;2024-03-02T14:25:52;1.17;;;0.90;;
27999;SDS011;15328;50.860;10.562;2024-03-02T14:30:52;1.70;;;1.13;;
27999;SDS011;15328;50.860;10.562;2024-03-02T14:35:53;1.83;;;1.20;;
27999;SDS011;15328;50.860;10.562;2024-03-02T14:40:54;2.97;;;1.50;;
27999;SDS011;15328;50.860;10.562;2024-03-02T14:45:54;6.73;;;2.50;;
27999;SDS011;15328;50.860;10.562;2024-03-02T14:50:55;3.13;;;1.77;;
27999;SDS011;15328;50.860;10.562;2024-03-02T14:55:56;2.40;;;1.60;;
27999;SDS011;15328;50.860;10.562;2024-03-02T15:00:56;3.87;;;1.90;;
27999;SDS011;15328;50.860;10.562;2024-03-02T15:05:56;3.33;;;1.80;;
27999;SDS011;15328;50.860;10.562;2024-03-02T15:10:57;2.50;;;1.60;;
27999;SDS011;15328;50.860;10.562;2024-03-02T15:15:59;3.47;;;2.08;;
27999;SDS011;15328;50.860;10.562;2024-03-02T15:21:00;3.67;;;2.42;;
27999;SDS011;15328;50.860;10.562;2024-03-02T15:26:00;1.70;;;1.17;;
27999;SDS011;15328;50.860;10.562;2024-03-02T15:31:00;2.60;;;1.40;;
27999;SDS011;15328;50.860;10.562;2024-03-02T15:36:01;3.38;;;2.05;;
27999;SDS011;15328;50.860;10.562;2024-03-02T15:41:01;2.45;;;1.60;;
27999;SDS011;15328;50.860;10.562;2024-03-02T15:46:02;2.67;;;1.70;;
27999;SDS011;15328;50.860;10.562;2024-03-02T15:51:02;1.90;;;1.40;;
27999;SDS011;15328;50.860;10.562;2024-03-02T15:56:04;3.40;;;1.55;;
27999;SDS011;15328;50.860;10.562;2024-03-02T16:01:05;4.38;;;2.60;;
27999;SDS011;15328;50.860;10.562;2024-03-02T16:06:05;6.47;;;4.00;;
27999;SDS011;15328;50.860;10.562;2024-03-02T16:11:06;8.60;;;5.43;;
27999;SDS011;15328;50.860;10.562;2024-03-02T16:16:06;5.60;;;4.03;;
27999;SDS011;15328;50.860;10.562;2024-03-02T16:21:07;5.00;;;3.40;;
27999;SDS011;15328;50.860;10.562;2024-03-02T16:26:08;4.53;;;3.20;;
27999;SDS011;15328;50.860;10.562;2024-03-02T16:31:09;4.43;;;3.00;;
27999;SDS011;15328;50.860;10.562;2024-03-02T16:36:10;4.72;;;3.60;;
27999;SDS011;15328;50.860;10.562;2024-03-02T16:41:10;3.85;;;2.40;;
27999;SDS011;15328;50.860;10.562;2024-03-02T16:46:11;4.38;;;2.40;;
27999;SDS011;15328;50.860;10.562;2024-03-02T16:51:11;2.50;;;1.80;;
27999;SDS011;15328;50.860;10.562;2024-03-02T16:56:11;4.33;;;2.00;;
27999;SDS011;15328;50.860;10.562;2024-03-02T17:01:12;8.13;;;5.00;;
27999;SDS011;15328;50.860;10.562;2024-03-02T17:06:12;8.07;;;4.70;;
27999;SDS011;15328;50.860;10.562;2024-03-02T17:11:12;4.53;;;3.10;;
27999;SDS011;15328;50.860;10.562;2024-03-02T17:16:13;4.90;;;3.30;;
27999;SDS011;15328;50.860;10.562;2024-03-02T17:21:17;7.25;;;4.82;;
27999;SDS011;15328;50.860;10.562;2024-03-02T17:26:18;8.45;;;5.28;;
27999;SDS011;15328;50.860;10.562;2024-03-02T17:31:19;5.95;;;3.20;;
27999;SDS011;15328;50.860;10.562;2024-03-02T17:36:19;3.67;;;2.65;;
27999;SDS011;15328;50.860;10.562;2024-03-02T17:41:19;19.27;;;9.23;;
27999;SDS011;15328;50.860;10.562;2024-03-02T17:46:20;5.10;;;3.10;;
27999;SDS011;15328;50.860;10.562;2024-03-02T17:51:20;5.15;;;3.50;;
27999;SDS011;15328;50.860;10.562;2024-03-02T17:56:20;7.13;;;4.27;;
27999;SDS011;15328;50.860;10.562;2024-03-02T18:01:21;12.02;;;8.07;;
27999;SDS011;15328;50.860;10.562;2024-03-02T18:06:21;12.45;;;8.07;;
27999;SDS011;15328;50.860;10.562;2024-03-02T18:11:22;9.63;;;6.97;;
27999;SDS011;15328;50.860;10.562;2024-03-02T18:16:24;20.23;;;11.38;;
27999;SDS011;15328;50.860;10.562;2024-03-02T18:21:24;12.95;;;7.43;;
27999;SDS011;15328;50.860;10.562;2024-03-02T18:26:25;14.70;;;8.07;;
27999;SDS011;15328;50.860;10.562;2024-03-02T18:31:26;16.13;;;8.77;;
27999;SDS011;15328;50.860;10.562;2024-03-02T18:36:27;9.70;;;6.90;;
27999;SDS011;15328;50.860;10.562;2024-03-02T18:41:27;10.55;;;6.82;;
27999;SDS011;15328;50.860;10.562;2024-03-02T18:46:27;12.70;;;6.95;;
27999;SDS011;15328;50.860;10.562;2024-03-02T18:51:28;7.13;;;4.47;;
27999;SDS011;15328;50.860;10.562;2024-03-02T18:56:28;5.93;;;4.00;;
27999;SDS011;15328;50.860;10.562;2024-03-02T19:01:29;5.90;;;3.50;;
27999;SDS011;15328;50.860;10.562;2024-03-02T19:06:29;3.43;;;2.27;;
27999;SDS011;15328;50.860;10.562;2024-03-02T19:11:29;4.18;;;2.85;;
27999;SDS011;15328;50.860;10.562;2024-03-02T19:16:30;4.70;;;3.20;;
27999;SDS011;15328;50.860;10.562;2024-03-02T19:21:30;4.97;;;3.10;;
27999;SDS011;15328;50.860;10.562;2024-03-02T19:26:32;4.55;;;3.13;;
27999;SDS011;15328;50.860;10.562;2024-03-02T19:31:32;6.43;;;3.40;;
27999;SDS011;15328;50.860;10.562;2024-03-02T19:36:33;5.22;;;3.10;;
27999;SDS011;15328;50.860;10.562;2024-03-02T19:41:33;4.90;;;3.40;;
27999;SDS011;15328;50.860;10.562;2024-03-02T19:46:34;6.65;;;4.03;;
27999;SDS011;15328;50.860;10.562;2024-03-02T19:51:34;7.80;;;4.57;;
27999;SDS011;15328;50.860;10.562;2024-03-02T19:56:34;14.10;;;7.32;;
27999;SDS011;15328;50.860;10.562;2024-03-02T20:01:36;15.75;;;8.00;;
27999;SDS011;15328;50.860;10.562;2024-03-02T20:06:36;11.13;;;6.10;;
27999;SDS011;15328;50.860;10.562;2024-03-02T20:11:36;9.63;;;5.50;;
27999;SDS011;15328;50.860;10.562;2024-03-02T20:16:37;6.90;;;4.33;;
27999;SDS011;15328;50.860;10.562;2024-03-02T20:21:42;6.35;;;3.72;;
27999;SDS011;15328;50.860;10.562;2024-03-02T20:26:42;5.70;;;3.55;;
27999;SDS011;15328;50.860;10.562;2024-03-02T20:31:43;4.72;;;2.90;;
27999;SDS011;15328;50.860;10.562;2024-03-02T20:36:44;6.10;;;2.80;;
27999;SDS011;15328;50.860;10.562;2024-03-02T20:41:44;4.30;;;2.45;;
27999;SDS011;15328;50.860;10.562;2024-03-02T20:46:44;3.83;;;2.80;;
27999;SDS011;15328;50.860;10.562;2024-03-02T20:51:45;4.40;;;2.70;;
27999;SDS011;15328;50.860;10.562;2024-03-02T20:56:46;5.43;;;3.15;;
27999;SDS011;15328;50.860;10.562;2024-03-02T21:01:47;4.72;;;2.67;;
27999;SDS011;15328;50.860;10.562;2024-03-02T21:06:48;3.80;;;2.53;;
27999;SDS011;15328;50.860;10.562;2024-03-02T21:11:48;5.07;;;2.90;;
27999;SDS011;15328;50.860;10.562;2024-03-02T21:16:49;4.50;;;2.95;;
27999;SDS011;15328;50.860;10.562;2024-03-02T21:21:52;4.43;;;3.00;;
27999;SDS011;15328;50.860;10.562;2024-03-02T21:26:55;5.15;;;3.08;;
27999;SDS011;15328;50.860;10.562;2024-03-02T21:31:55;4.93;;;3.00;;
27999;SDS011;15328;50.860;10.562;2024-03-02T21:36:56;5.72;;;3.25;;
27999;SDS011;15328;50.860;10.562;2024-03-02T21:41:57;3.47;;;2.22;;
27999;SDS011;15328;50.860;10.562;2024-03-02T21:46:58;3.25;;;1.70;;
27999;SDS011;15328;50.860;10.562;2024-03-02T21:51:58;3.45;;;2.20;;
27999;SDS011;15328;50.860;10.562;2024-03-02T21:57:00;4.85;;;2.60;;
27999;SDS011;15328;50.860;10.562;2024-03-02T22:02:12;4.10;;;1.65;;
27999;SDS011;15328;50.860;10.562;2024-03-02T22:07:15;2.63;;;1.58;;
27999;SDS011;15328;50.860;10.562;2024-03-02T22:12:15;2.58;;;1.25;;
27999;SDS011;15328;50.860;10.562;2024-03-02T22:17:16;3.47;;;0.98;;
27999;SDS011;15328;50.860;10.562;2024-03-02T22:22:16;1.80;;;1.03;;
27999;SDS011;15328;50.860;10.562;2024-03-02T22:27:16;3.40;;;1.40;;
27999;SDS011;15328;50.860;10.562;2024-03-02T22:32:17;2.67;;;1.30;;
27999;SDS011;15328;50.860;10.562;2024-03-02T22:37:17;2.37;;;1.10;;
27999;SDS011;15328;50.860;10.562;2024-03-02T22:42:31;3.03;;;1.20;;
27999;SDS011;15328;50.860;10.562;2024-03-02T22:47:31;2.37;;;1.70;;
27999;SDS011;15328;50.860;10.562;2024-03-02T22:52:31;3.22;;;1.75;;
27999;SDS011;15328;50.860;10.562;2024-03-02T22:57:32;2.30;;;1.60;;
27999;SDS011;15328;50.860;10.562;2024-03-02T23:02:33;5.20;;;1.80;;
27999;SDS011;15328;50.860;10.562;2024-03-02T23:07:33;2.80;;;1.75;;
27999;SDS011;15328;50.860;10.562;2024-03-02T23:12:33;2.57;;;1.07;;
27999;SDS011;15328;50.860;10.562;2024-03-02T23:17:34;2.30;;;1.13;;
27999;SDS011;15328;50.860;10.562;2024-03-02T23:22:34;2.30;;;1.00;;
27999;SDS011;15328;50.860;10.562;2024-03-02T23:27:34;1.37;;;0.90;;
27999;SDS011;15328;50.860;10.562;2024-03-02T23:32:35;1.43;;;1.00;;
27999;SDS011;15328;50.860;10.562;2024-03-02T23:37:35;1.38;;;0.82;;
27999;SDS011;15328;50.860;10.562;2024-03-02T23:42:35;2.90;;;0.90;;
27999;SDS011;15328;50.860;10.562;2024-03-02T23:47:36;1.77;;;0.90;;
27999;SDS011;15328;50.860;10.562;2024-03-02T23:52:37;1.23;;;0.90;;
27999;SDS011;15328;50.860;10.562;2024-03-02T23:57:38;1.23;;;0.70;;
